British Tenacity — MDTE9 — position and weather

sailwx.info

Track history (hours):
 
Tides and Currents Weather Stations Pressure Air Temp Water Temp Dewpoint Dewpoint Depression Visibility Wind Speed Wind Dir Waves Ship Positions

British Tenacity

Last reported at 2016-Jul-13 13:18 UTC. Time now 2016-Jul-26 16:08 UTC.
Position N 29°21' W 094°44'.
Warning: this ship's position is 13 days out of date.

Type: Ship (hazmat cat C). MMSI: 235825000.

Date/timePositionNaut miles runAvg speedWind from/ knotsBaromVisibWave heightAir tempDewpointWater temp
2016-Jul-13 13:18N 29°21' W 094°44'810.3
2016-Jul-13 12:33N 29°26' W 094°50'1010.4
2016-Jul-13 11:34N 29°35' W 094°56'9 8.5
2016-Jul-13 10:34N 29°43' W 095°01'5 4.7
2016-Jul-13 09:34N 29°45' W 095°06'  
2016-Jul-10 07:14N 29°44' W 095°07'2 3.2
2016-Jul-10 06:33N 29°46' W 095°05'9 8.2
2016-Jul-10 05:31N 29°40' W 094°58'1212.6
2016-Jul-10 04:33N 29°29' W 094°52'18 0.9
2016-Jul-09 07:13N 29°19' W 094°34'5 1.8
2016-Jul-09 04:17N 29°15' W 094°30'912.9
2016-Jul-09 03:33N 29°07' W 094°25'1913.5
2016-Jul-09 02:07N 28°47' W 094°24'  
2016-Jul-05 22:11N 19°47' W 095°51'1213.8
2016-Jul-05 21:16N 19°35' W 095°54'1013.8
2016-Jul-05 20:33N 19°26' W 095°56'1312.7
2016-Jul-05 19:33N 19°13' W 095°59'8 7.9
2016-Jul-05 18:31N 19°12' W 096°07'0 0.1
2016-Jul-05 17:31N 19°12' W 096°07'  
Track history (hours):
 
Tides and Currents Weather Stations Pressure Air Temp Water Temp Dewpoint Dewpoint Depression Visibility Wind Speed Wind Dir Waves Ship Positions

British Tenacity

Last reported at 2016-Jul-13 13:18 UTC. Time now 2016-Jul-26 16:08 UTC.
Position N 29°21' W 094°44'.
Warning: this ship's position is 13 days out of date.

Type: Ship (hazmat cat C). MMSI: 235825000.

Date/timePositionNaut miles runAvg speedWind from/ knotsBaromVisibWave heightAir tempDewpointWater temp
2016-Jul-13 13:18N 29°21' W 094°44'810.3
2016-Jul-13 12:33N 29°26' W 094°50'1010.4
2016-Jul-13 11:34N 29°35' W 094°56'9 8.5
2016-Jul-13 10:34N 29°43' W 095°01'5 4.7
2016-Jul-13 09:34N 29°45' W 095°06'  
2016-Jul-10 07:14N 29°44' W 095°07'2 3.2
2016-Jul-10 06:33N 29°46' W 095°05'9 8.2
2016-Jul-10 05:31N 29°40' W 094°58'1212.6
2016-Jul-10 04:33N 29°29' W 094°52'18 0.9
2016-Jul-09 07:13N 29°19' W 094°34'5 1.8
2016-Jul-09 04:17N 29°15' W 094°30'912.9
2016-Jul-09 03:33N 29°07' W 094°25'1913.5
2016-Jul-09 02:07N 28°47' W 094°24'  
2016-Jul-05 22:11N 19°47' W 095°51'1213.8
2016-Jul-05 21:16N 19°35' W 095°54'1013.8
2016-Jul-05 20:33N 19°26' W 095°56'1312.7
2016-Jul-05 19:33N 19°13' W 095°59'8 7.9
2016-Jul-05 18:31N 19°12' W 096°07'0 0.1
2016-Jul-05 17:31N 19°12' W 096°07'  

Dump ship's entire track history